createdAt,value
2018-12-22T00:01:10.827Z,96196.41
2018-12-22T00:03:38.284Z,96186.27
2018-12-22T00:06:04.225Z,96178.82
2018-12-22T00:08:32.083Z,96176.41
2018-12-22T00:10:57.974Z,96181.61
2018-12-22T00:13:23.820Z,96173.25
2018-12-22T00:15:49.717Z,96175.63
2018-12-22T00:18:15.767Z,96179.27
2018-12-22T00:20:44.659Z,96181.20
2018-12-22T00:23:10.609Z,96178.50
2018-12-22T00:25:41.185Z,96173.20
2018-12-22T00:28:07.099Z,96165.48
2018-12-22T00:30:34.031Z,96164.66
2018-12-22T00:32:59.964Z,96168.88
2018-12-22T00:35:29.754Z,96165.75
2018-12-22T00:37:55.682Z,96173.60
2018-12-22T00:40:23.528Z,96173.66
2018-12-22T00:42:49.617Z,96167.19
2018-12-22T00:45:19.255Z,96166.47
2018-12-22T00:47:45.177Z,96161.99
2018-12-22T00:50:11.256Z,96162.13
2018-12-22T00:52:37.202Z,96164.23
2018-12-22T00:55:03.722Z,96161.85
2018-12-22T00:57:29.637Z,96170.78
2018-12-22T00:59:55.548Z,96175.08
2018-12-22T01:02:24.416Z,96170.28
2018-12-22T01:04:50.303Z,96172.22
2018-12-22T01:07:19.202Z,96175.63
2018-12-22T01:09:45.341Z,96173.69
2018-12-22T01:12:14.447Z,96178.44
2018-12-22T01:14:40.329Z,96176.65
2018-12-22T01:17:09.926Z,96167.91
2018-12-22T01:19:35.815Z,96169.84
2018-12-22T01:22:03.732Z,96164.45
2018-12-22T01:24:29.645Z,96169.44
2018-12-22T01:26:55.531Z,96173.82
2018-12-22T01:29:21.465Z,96183.37
2018-12-22T01:31:47.340Z,96180.05
2018-12-22T01:34:16.392Z,96165.75
2018-12-22T01:36:43.418Z,96171.31
2018-12-22T01:39:09.508Z,96162.89
2018-12-22T01:41:35.366Z,96165.75
2018-12-22T01:44:05.590Z,96169.25
2018-12-22T01:46:31.899Z,96170.33
2018-12-22T01:48:58.646Z,96173.60
2018-12-22T01:51:24.539Z,96176.16
2018-12-22T01:53:53.480Z,96175.31
2018-12-22T01:56:19.355Z,96175.08
2018-12-22T01:58:48.351Z,96178.03
2018-12-22T02:01:14.240Z,96181.45
2018-12-22T02:03:40.176Z,96181.63
2018-12-22T02:06:06.048Z,96175.80
2018-12-22T02:08:31.991Z,96176.06
2018-12-22T02:11:01.784Z,96180.69
2018-12-22T02:13:27.706Z,96190.73
2018-12-22T02:15:55.428Z,96182.08
2018-12-22T02:18:21.283Z,96183.11
2018-12-22T02:20:51.180Z,96167.05
2018-12-22T02:23:17.105Z,96171.53
2018-12-22T02:25:43.967Z,96165.80
2018-12-22T02:28:09.868Z,96162.20
2018-12-22T02:30:38.705Z,96148.84
2018-12-22T02:33:04.945Z,96156.00
2018-12-22T02:35:34.323Z,96162.58
2018-12-22T02:38:00.192Z,96162.58
2018-12-22T02:40:26.103Z,96166.48
2018-12-22T02:42:52.405Z,96167.47
2018-12-22T02:45:18.324Z,96173.80
2018-12-22T02:47:46.148Z,96176.05
2018-12-22T02:50:12.081Z,96179.01
2018-12-22T02:52:41.710Z,96166.64
2018-12-22T02:55:07.650Z,96166.38
2018-12-22T02:57:35.475Z,96161.84
2018-12-22T03:00:01.404Z,96150.36
2018-12-22T03:02:29.242Z,96149.64
2018-12-22T03:04:55.169Z,96154.63
2018-12-22T03:07:24.206Z,96167.27
2018-12-22T03:09:50.086Z,96175.84
2018-12-22T03:12:18.936Z,96182.70
2018-12-22T03:14:44.800Z,96165.75
2018-12-22T03:17:10.708Z,96157.27
2018-12-22T03:19:36.642Z,96138.56
2018-12-22T03:22:02.661Z,96135.91
2018-12-22T03:24:31.995Z,96129.56
2018-12-22T03:26:57.914Z,96122.64
2018-12-22T03:29:25.624Z,96128.02
2018-12-22T03:31:52.600Z,96130.97
2018-12-22T03:34:20.262Z,96139.08
2018-12-22T03:36:46.169Z,96144.73
2018-12-22T03:39:15.665Z,96135.27
2018-12-22T03:41:41.547Z,96125.33
2018-12-22T03:44:10.940Z,96132.56
2018-12-22T03:46:36.850Z,96110.81
2018-12-22T03:49:04.462Z,96126.17
2018-12-22T03:51:30.365Z,96095.61
2018-12-22T03:53:56.354Z,96099.09
2018-12-22T03:56:22.457Z,96102.93
2018-12-22T03:58:48.347Z,96122.58
2018-12-22T04:01:16.030Z,96105.89
2018-12-22T04:03:41.924Z,96102.15
2018-12-22T04:06:10.884Z,96097.98
2018-12-22T04:08:36.928Z,96106.77
2018-12-22T04:11:05.816Z,96110.48
2018-12-22T04:13:31.749Z,96098.44
2018-12-22T04:16:01.396Z,96107.32
2018-12-22T04:18:27.254Z,96092.81
2018-12-22T04:20:57.956Z,96117.15
2018-12-22T04:23:23.862Z,96111.94
2018-12-22T04:25:49.746Z,96109.80
2018-12-22T04:28:15.659Z,96102.38
2018-12-22T04:30:41.665Z,96114.73
2018-12-22T04:33:07.527Z,96106.47
2018-12-22T04:35:33.417Z,96109.43
2018-12-22T04:38:01.917Z,96115.78
2018-12-22T04:40:27.950Z,96110.14
2018-12-22T04:42:56.972Z,96107.60
2018-12-22T04:45:23.053Z,96093.31
2018-12-22T04:47:51.278Z,96103.30
2018-12-22T04:50:17.178Z,96104.80
2018-12-22T04:52:46.627Z,96093.59
2018-12-22T04:55:12.994Z,96095.95
2018-12-22T04:57:40.091Z,96105.43
2018-12-22T05:00:07.926Z,96097.87
2018-12-22T05:02:34.727Z,96098.20
2018-12-22T05:05:00.659Z,96118.53
2018-12-22T05:07:26.500Z,96104.36
2018-12-22T05:09:52.370Z,96104.62
2018-12-22T05:12:18.278Z,96126.94
2018-12-22T05:14:47.701Z,96125.86
2018-12-22T05:17:13.593Z,96130.81
2018-12-22T05:19:42.535Z,96123.00
2018-12-22T05:22:08.423Z,96145.13
2018-12-22T05:24:36.305Z,96162.72
2018-12-22T05:27:02.251Z,96127.28
2018-12-22T05:29:31.946Z,96158.83
2018-12-22T05:31:57.811Z,96139.98
2018-12-22T05:34:25.492Z,96142.90
2018-12-22T05:36:51.362Z,96164.39
2018-12-22T05:39:21.075Z,96183.02
2018-12-22T05:41:47.008Z,96185.30
2018-12-22T05:44:12.925Z,96207.89
2018-12-22T05:46:38.821Z,96199.38
2018-12-22T05:49:04.730Z,96203.02
2018-12-22T05:51:32.056Z,96178.62
2018-12-22T05:53:58.040Z,96191.20
2018-12-22T05:56:26.797Z,96187.56
2018-12-22T05:58:52.731Z,96190.25
2018-12-22T06:01:22.944Z,96185.27
2018-12-22T06:03:48.856Z,96193.33
2018-12-22T06:06:16.365Z,96205.17
2018-12-22T06:08:42.254Z,96224.05
2018-12-22T06:11:12.124Z,96224.64
2018-12-22T06:13:38.020Z,96230.09
2018-12-22T06:16:05.862Z,96227.62
2018-12-22T06:18:31.748Z,96220.13
2018-12-22T06:20:57.623Z,96221.59
2018-12-22T06:23:23.490Z,96229.95
2018-12-22T06:25:49.393Z,96245.17
2018-12-22T06:28:18.565Z,96239.59
2018-12-22T06:30:44.557Z,96241.42
2018-12-22T06:33:12.495Z,96257.94
2018-12-22T06:35:38.370Z,96243.86
2018-12-22T06:38:08.223Z,96257.66
2018-12-22T06:40:34.313Z,96265.16
2018-12-22T06:43:02.052Z,96247.52
2018-12-22T06:45:27.950Z,96252.63
2018-12-22T06:47:57.575Z,96264.61
2018-12-22T06:50:23.476Z,96281.29
2018-12-22T06:52:51.300Z,96277.03
2018-12-22T06:55:17.419Z,96255.69
2018-12-22T06:57:43.324Z,96260.34
2018-12-22T07:00:17.467Z,96264.33
2018-12-22T07:02:37.450Z,96263.84
2018-12-22T07:05:04.086Z,96283.73
2018-12-22T07:07:29.962Z,96296.80
2018-12-22T07:09:57.847Z,96288.00
2018-12-22T07:12:28.821Z,96305.70
2018-12-22T07:14:54.894Z,96315.45
2018-12-22T07:17:20.802Z,96332.25
2018-12-22T07:19:47.568Z,96335.69
2018-12-22T07:22:15.753Z,96346.45
2018-12-22T07:24:41.641Z,96336.34
2018-12-22T07:27:09.888Z,96342.74
2018-12-22T07:29:35.951Z,96352.92
2018-12-22T07:32:01.815Z,96359.77
2018-12-22T07:34:27.724Z,96358.31
2018-12-22T07:36:53.572Z,96356.23
2018-12-22T07:39:19.859Z,96367.73
2018-12-22T07:41:47.840Z,96384.05
2018-12-22T07:44:13.750Z,96389.97
2018-12-22T07:46:42.625Z,96392.56
2018-12-22T07:49:09.438Z,96383.48
2018-12-22T07:51:38.516Z,96402.41
2018-12-22T07:54:04.457Z,96397.77
2018-12-22T07:56:32.544Z,96410.48
2018-12-22T07:58:58.490Z,96422.01
2018-12-22T08:01:27.983Z,96411.07
2018-12-22T08:03:53.877Z,96422.20
2018-12-22T08:06:22.802Z,96428.98
2018-12-22T08:08:48.650Z,96435.39
2018-12-22T08:11:14.521Z,96422.86
2018-12-22T08:13:40.416Z,96432.61
2018-12-22T08:16:06.349Z,96426.20
2018-12-22T08:18:33.811Z,96436.59
2018-12-22T08:20:59.728Z,96441.80
2018-12-22T08:23:29.712Z,96448.57
2018-12-22T08:25:55.651Z,96446.98
2018-12-22T08:28:23.543Z,96456.35
2018-12-22T08:30:49.574Z,96451.70
2018-12-22T08:33:19.083Z,96449.28
2018-12-22T08:35:45.096Z,96486.16
2018-12-22T08:38:11.944Z,96502.48
2018-12-22T08:40:37.858Z,96507.95
2018-12-22T08:43:07.100Z,96516.45
2018-12-22T08:45:33.724Z,96505.06
2018-12-22T08:47:59.683Z,96522.04
2018-12-22T08:50:25.622Z,96517.70
2018-12-22T08:52:51.519Z,96506.85
2018-12-22T08:55:19.111Z,96521.34
2018-12-22T08:57:44.989Z,96510.84
2018-12-22T09:00:14.760Z,96510.13
2018-12-22T09:02:40.670Z,96522.66
2018-12-22T09:05:08.410Z,96524.33
2018-12-22T09:07:34.304Z,96526.54
2018-12-22T09:10:07.208Z,96540.45
2018-12-22T09:12:33.177Z,96537.64
2018-12-22T09:14:59.068Z,96546.52
2018-12-22T09:17:26.927Z,96546.14
2018-12-22T09:19:53.199Z,96534.75
2018-12-22T09:22:19.057Z,96541.56
2018-12-22T09:24:45.615Z,96552.98
2018-12-22T09:27:11.507Z,96564.51
2018-12-22T09:29:37.451Z,96570.08
2018-12-22T09:32:04.591Z,96572.35
2018-12-22T09:34:30.528Z,96575.18
2018-12-22T09:37:00.257Z,96574.48
2018-12-22T09:39:26.144Z,96593.36
2018-12-22T09:41:53.993Z,96580.13
2018-12-22T09:44:19.863Z,96593.47
2018-12-22T09:46:49.569Z,96609.16
2018-12-22T09:49:16.368Z,96591.69
2018-12-22T09:51:43.231Z,96590.80
2018-12-22T09:54:09.120Z,96591.61
2018-12-22T09:56:38.956Z,96589.15
2018-12-22T09:59:06.425Z,96586.58
2018-12-22T10:01:32.652Z,96597.62
2018-12-22T10:03:58.679Z,96588.77
2018-12-22T10:06:24.601Z,96600.68
2018-12-22T10:08:50.561Z,96608.00
2018-12-22T10:11:16.616Z,96603.33
2018-12-22T10:13:44.303Z,96596.95
2018-12-22T10:16:10.289Z,96596.66
2018-12-22T10:18:39.871Z,96587.45
2018-12-22T10:21:05.802Z,96593.87
2018-12-22T10:23:34.896Z,96597.97
2018-12-22T10:26:00.785Z,96595.45
2018-12-22T10:28:28.542Z,96597.30
2018-12-22T10:30:54.420Z,96610.96
2018-12-22T10:33:24.239Z,96595.89
2018-12-22T10:35:50.088Z,96606.69
2018-12-22T10:38:15.979Z,96600.73
2018-12-22T10:40:42.244Z,96597.20
2018-12-22T10:43:08.118Z,96596.11
2018-12-22T10:45:35.080Z,96599.77
2018-12-22T10:48:00.956Z,96603.67
2018-12-22T10:50:29.722Z,96625.31
2018-12-22T10:52:55.632Z,96602.01
2018-12-22T10:55:24.295Z,96604.13
2018-12-22T10:57:50.576Z,96603.59
2018-12-22T11:00:20.325Z,96600.79
2018-12-22T11:02:46.194Z,96597.83
2018-12-22T11:05:15.750Z,96599.13
2018-12-22T11:07:41.688Z,96601.64
2018-12-22T11:10:12.206Z,96601.81
2018-12-22T11:12:38.078Z,96581.66
2018-12-22T11:15:07.217Z,96605.05
2018-12-22T11:17:37.588Z,96617.83
2018-12-22T11:20:12.722Z,96613.00
2018-12-22T11:22:39.222Z,96633.45
2018-12-22T11:25:09.846Z,96644.81
2018-12-22T11:27:35.763Z,96644.57
2018-12-22T11:30:01.653Z,96658.48
2018-12-22T11:32:27.552Z,96662.78
2018-12-22T11:34:53.444Z,96668.48
2018-12-22T11:37:22.629Z,96681.02
2018-12-22T11:39:48.525Z,96665.02
2018-12-22T11:42:14.441Z,96652.72
2018-12-22T11:44:40.339Z,96654.34
2018-12-22T11:47:08.458Z,96643.79
2018-12-22T11:49:35.151Z,96638.45
2018-12-22T11:52:01.116Z,96640.32
2018-12-22T11:54:26.995Z,96593.53
2018-12-22T11:56:52.933Z,96640.37
2018-12-22T11:59:18.820Z,96655.52
2018-12-22T12:01:45.736Z,96651.62
2018-12-22T12:04:11.656Z,96642.17
2018-12-22T12:06:37.593Z,96640.82
2018-12-22T12:09:04.615Z,96661.43
2018-12-22T12:11:33.894Z,96643.31
2018-12-22T12:14:00.088Z,96650.17
2018-12-22T12:16:26.043Z,96644.29
2018-12-22T12:19:05.511Z,96653.11
2018-12-22T12:21:31.466Z,96651.45
2018-12-22T12:23:57.409Z,96638.88
2018-12-22T12:26:23.904Z,96647.33
2018-12-22T12:28:49.845Z,96660.78
2018-12-22T12:31:25.135Z,96658.48
2018-12-22T12:33:51.358Z,96669.41
2018-12-22T12:36:17.271Z,96669.89
2018-12-22T12:38:43.147Z,96550.30
2018-12-22T12:41:09.052Z,96663.33
2018-12-22T12:43:34.952Z,96665.31
2018-12-22T12:46:00.846Z,96654.61
2018-12-22T12:48:26.746Z,96654.50
2018-12-22T12:50:52.898Z,96651.36
2018-12-22T12:53:22.478Z,96661.47
2018-12-22T12:55:48.618Z,96657.52
2018-12-22T12:58:14.529Z,96601.50
2018-12-22T13:00:40.413Z,96659.18
2018-12-22T13:03:08.356Z,96670.28
2018-12-22T13:05:34.419Z,96647.14
2018-12-22T13:08:00.395Z,96649.36
2018-12-22T13:10:27.766Z,96641.16
2018-12-22T13:13:01.089Z,96634.09
2018-12-22T13:15:27.094Z,96657.20
2018-12-22T13:17:53.020Z,96665.36
2018-12-22T13:20:21.948Z,96672.08
2018-12-22T13:22:48.089Z,96665.31
2018-12-22T13:25:13.983Z,96678.03
2018-12-22T13:27:39.837Z,96666.30
2018-12-22T13:30:10.501Z,96676.34
2018-12-22T13:32:37.782Z,96686.80
2018-12-22T13:35:08.557Z,96688.70
2018-12-22T13:37:34.508Z,96680.81
2018-12-22T13:40:00.411Z,96687.41
2018-12-22T13:42:26.305Z,96680.89
2018-12-22T13:44:52.198Z,96674.22
2018-12-22T13:47:18.099Z,96683.12
2018-12-22T13:49:44.659Z,96692.48
2018-12-22T13:52:10.587Z,96715.95
2018-12-22T13:54:36.842Z,96720.50
2018-12-22T13:57:02.722Z,96722.83
2018-12-22T13:59:28.636Z,96730.95
2018-12-22T14:01:54.767Z,96749.00
2018-12-22T14:04:20.686Z,96751.59
2018-12-22T14:06:46.600Z,96774.98
2018-12-22T14:09:12.493Z,96773.37
2018-12-22T14:11:38.454Z,96777.30
2018-12-22T14:14:06.870Z,96768.78
2018-12-22T14:16:34.419Z,96758.89
2018-12-22T14:19:00.359Z,96762.41
2018-12-22T14:21:26.230Z,96761.20
2018-12-22T14:23:59.036Z,96751.45
2018-12-22T14:26:24.909Z,96771.16
2018-12-22T14:28:50.791Z,96777.97
2018-12-22T14:31:16.724Z,96776.67
2018-12-22T14:33:43.508Z,96756.33
2018-12-22T14:36:09.656Z,96771.42
2018-12-22T14:38:50.638Z,96765.78
2018-12-22T14:41:16.527Z,96764.23
2018-12-22T14:43:42.410Z,96770.96
2018-12-22T14:46:08.345Z,96767.81
2018-12-22T14:48:34.660Z,96775.98
2018-12-22T14:51:00.542Z,96757.92
2018-12-22T14:53:26.441Z,96780.72
2018-12-22T14:55:54.067Z,96786.36
2018-12-22T14:58:20.216Z,96797.19
2018-12-22T15:00:46.139Z,96796.20
2018-12-22T15:03:12.019Z,96803.30
2018-12-22T15:05:37.912Z,96800.27
2018-12-22T15:08:07.868Z,96805.83
2018-12-22T15:10:34.737Z,96805.89
2018-12-22T15:13:00.794Z,96808.11
2018-12-22T15:15:26.661Z,96811.62
2018-12-22T15:17:52.553Z,96794.39
2018-12-22T15:20:24.657Z,96812.86
2018-12-22T15:22:50.943Z,96810.95
2018-12-22T15:25:16.867Z,96819.36
2018-12-22T15:27:42.747Z,96826.08
2018-12-22T15:30:12.187Z,96822.36
2018-12-22T15:32:44.104Z,96835.78
2018-12-22T15:35:07.989Z,96834.80
2018-12-22T15:37:34.588Z,96824.27
2018-12-22T15:40:00.510Z,96838.14
2018-12-22T15:42:26.425Z,96836.09
2018-12-22T15:44:52.335Z,96837.69
2018-12-22T15:47:18.300Z,96825.47
2018-12-22T15:49:44.189Z,96820.45
2018-12-22T15:52:10.110Z,96824.34
2018-12-22T15:54:35.974Z,96832.44
2018-12-22T15:57:01.835Z,96832.41
2018-12-22T15:59:27.723Z,96848.96
2018-12-22T16:01:53.693Z,96856.38
2018-12-22T16:04:19.612Z,96857.84
2018-12-22T16:06:45.539Z,96879.51
2018-12-22T16:09:11.424Z,96870.45
2018-12-22T16:11:37.730Z,96853.48
2018-12-22T16:14:03.625Z,96847.79
2018-12-22T16:16:29.649Z,96878.30
2018-12-22T16:18:55.623Z,96872.86
2018-12-22T16:21:21.489Z,96860.19
2018-12-22T16:23:47.511Z,96869.98
2018-12-22T16:26:14.637Z,96902.86
2018-12-22T16:28:40.656Z,96881.02
2018-12-22T16:31:06.653Z,96876.67
2018-12-22T16:33:32.536Z,96876.84
2018-12-22T16:36:01.600Z,96884.39
2018-12-22T16:38:27.498Z,96900.39
2018-12-22T16:40:57.261Z,96899.09
2018-12-22T16:43:23.209Z,96886.20
2018-12-22T16:45:49.108Z,96862.20
2018-12-22T16:48:15.006Z,96869.75
2018-12-22T16:50:40.901Z,96873.85
2018-12-22T16:53:09.684Z,96877.30
2018-12-22T16:55:35.575Z,96876.75
2018-12-22T16:58:09.903Z,96868.97
2018-12-22T17:00:51.887Z,96876.98
2018-12-22T17:03:17.743Z,96869.97
2018-12-22T17:05:43.654Z,96869.91
2018-12-22T17:08:09.614Z,96876.33
2018-12-22T17:10:35.531Z,96875.78
2018-12-22T17:13:01.423Z,96889.73
2018-12-22T17:15:27.367Z,96891.73
2018-12-22T17:17:53.333Z,96900.58
2018-12-22T17:20:19.176Z,96906.37
2018-12-22T17:23:00.397Z,96916.52
2018-12-22T17:25:26.426Z,96923.31
2018-12-22T17:27:52.307Z,96921.86
2018-12-22T17:30:18.225Z,96916.67
2018-12-22T17:32:44.117Z,96916.60
2018-12-22T17:35:13.547Z,96913.94
2018-12-22T17:37:39.460Z,96913.33
2018-12-22T17:40:09.552Z,96912.41
2018-12-22T17:42:35.312Z,96902.20
2018-12-22T17:45:01.183Z,96910.42
2018-12-22T17:47:27.114Z,96909.44
2018-12-22T17:49:52.968Z,96917.81
2018-12-22T17:52:18.813Z,96918.35
2018-12-22T17:54:44.728Z,96910.97
2018-12-22T17:57:10.600Z,96912.09
2018-12-22T17:59:36.520Z,96908.28
2018-12-22T18:02:02.766Z,96904.84
2018-12-22T18:04:28.662Z,96909.66
2018-12-22T18:06:54.532Z,96910.95
2018-12-22T18:09:20.548Z,96923.16
2018-12-22T18:11:48.399Z,96921.24
2018-12-22T18:14:14.316Z,96928.73
2018-12-22T18:16:40.213Z,96929.48
2018-12-22T18:19:06.095Z,96912.46
2018-12-22T18:21:32.073Z,96915.53
2018-12-22T18:23:58.072Z,96925.92
2018-12-22T18:26:25.144Z,96926.06
2018-12-22T18:28:51.220Z,96923.39
2018-12-22T18:31:18.206Z,96929.03
2018-12-22T18:33:44.526Z,96923.23
2018-12-22T18:36:10.474Z,96922.37
2018-12-22T18:38:36.351Z,96932.14
2018-12-22T18:41:02.411Z,96934.53
2018-12-22T18:43:28.281Z,96936.75
2018-12-22T18:45:54.456Z,96932.48
2018-12-22T18:48:22.683Z,96925.23
2018-12-22T18:50:48.731Z,96919.80
2018-12-22T18:53:14.645Z,96907.20
2018-12-22T18:55:40.533Z,96921.92
2018-12-22T18:58:08.481Z,96920.05
2018-12-22T19:00:34.392Z,96926.05
2018-12-22T19:03:03.567Z,96929.81
2018-12-22T19:05:29.481Z,96929.10
2018-12-22T19:07:57.414Z,96941.02
2018-12-22T19:10:28.551Z,96940.41
2018-12-22T19:12:56.153Z,96956.68
2018-12-22T19:15:22.944Z,96953.47
2018-12-22T19:17:48.879Z,96966.97
2018-12-22T19:20:22.446Z,96961.02
2018-12-22T19:22:48.398Z,96952.99
2018-12-22T19:25:14.341Z,96960.27
2018-12-22T19:27:40.280Z,96960.27
2018-12-22T19:30:07.530Z,96965.84
2018-12-22T19:32:33.405Z,96964.70
2018-12-22T19:35:07.381Z,96954.01
2018-12-22T19:37:33.525Z,96970.64
2018-12-22T19:39:59.469Z,96970.88
2018-12-22T19:42:25.439Z,96984.34
2018-12-22T19:44:51.391Z,96978.22
2018-12-22T19:47:17.309Z,96985.09
2018-12-22T19:49:43.185Z,96983.04
2018-12-22T19:52:09.216Z,96972.89
2018-12-22T19:54:35.119Z,96978.89
2018-12-22T19:57:01.014Z,96987.15
2018-12-22T19:59:26.940Z,96984.69
2018-12-22T20:01:52.808Z,96993.02
2018-12-22T20:04:18.719Z,96988.67
2018-12-22T20:06:45.464Z,96979.66
2018-12-22T20:09:11.934Z,96991.50
2018-12-22T20:11:39.207Z,96988.97
2018-12-22T20:14:05.064Z,96989.41
2018-12-22T20:16:34.875Z,96992.92
2018-12-22T20:19:03.774Z,96999.03
2018-12-22T20:21:30.148Z,96991.16
2018-12-22T20:23:56.141Z,96994.92
2018-12-22T20:26:22.075Z,97001.31
2018-12-22T20:28:48.001Z,96994.77
2018-12-22T20:31:13.888Z,96997.52
2018-12-22T20:33:40.390Z,96997.13
2018-12-22T20:36:06.309Z,97003.30
2018-12-22T20:38:35.920Z,97009.73
2018-12-22T20:41:01.806Z,97003.55
2018-12-22T20:43:34.481Z,97007.07
2018-12-22T20:46:00.789Z,97015.99
2018-12-22T20:48:26.723Z,97022.86
2018-12-22T20:50:53.007Z,97012.48
2018-12-22T20:53:19.342Z,97019.45
2018-12-22T20:55:45.203Z,97013.02
2018-12-22T20:58:14.660Z,97016.84
2018-12-22T21:00:40.591Z,97024.77
2018-12-22T21:03:06.478Z,97027.84
2018-12-22T21:05:34.019Z,97028.75
2018-12-22T21:07:59.902Z,97026.66
2018-12-22T21:10:25.863Z,97035.97
2018-12-22T21:12:51.759Z,97027.97
2018-12-22T21:15:21.415Z,97033.85
2018-12-22T21:17:47.285Z,97052.42
2018-12-22T21:20:14.895Z,97047.02
2018-12-22T21:22:40.804Z,97063.88
2018-12-22T21:25:10.189Z,97072.86
2018-12-22T21:27:36.039Z,97020.23
2018-12-22T21:30:06.051Z,97075.02
2018-12-22T21:32:35.350Z,97068.91
2018-12-22T21:35:01.514Z,97073.72
2018-12-22T21:37:27.615Z,97074.09
2018-12-22T21:39:53.717Z,97090.97
2018-12-22T21:42:19.683Z,97088.91
2018-12-22T21:44:45.564Z,97092.27
2018-12-22T21:47:11.507Z,97091.66
2018-12-22T21:49:37.675Z,97102.80
2018-12-22T21:52:07.591Z,97096.97
2018-12-22T21:54:33.482Z,97102.53
2018-12-22T21:57:00.268Z,97098.75
2018-12-22T21:59:26.167Z,97091.95
2018-12-22T22:01:55.825Z,97096.09
2018-12-22T22:04:21.720Z,97097.72
2018-12-22T22:06:51.415Z,97098.09
2018-12-22T22:09:19.167Z,97098.09
2018-12-22T22:11:45.180Z,97088.16
2018-12-22T22:14:11.074Z,97097.63
2018-12-22T22:16:37.057Z,97097.13
2018-12-22T22:19:03.091Z,97091.67
2018-12-22T22:21:29.001Z,97102.20
2018-12-22T22:23:56.048Z,97104.16
2018-12-22T22:26:21.922Z,97109.34
2018-12-22T22:28:50.193Z,97110.11
2018-12-22T22:31:16.128Z,97121.45
2018-12-22T22:36:13.218Z,97135.39
2018-12-22T22:38:39.976Z,97134.24
2018-12-22T22:41:05.854Z,97140.14
2018-12-22T22:43:35.388Z,97147.33
2018-12-22T22:46:01.289Z,97152.42
2018-12-22T22:48:30.313Z,97157.02
2018-12-22T22:50:56.223Z,97160.85
2018-12-22T22:53:22.166Z,97163.66
2018-12-22T22:55:48.062Z,97166.04
2018-12-22T22:58:13.948Z,97162.85
2018-12-22T23:00:42.270Z,97168.10
2018-12-22T23:03:08.177Z,97165.83
2018-12-22T23:05:35.846Z,97159.02
2018-12-22T23:08:01.686Z,97158.84
2018-12-22T23:10:30.383Z,97161.27
2018-12-22T23:12:56.267Z,97161.27
2018-12-22T23:15:25.390Z,97164.25
2018-12-22T23:17:54.296Z,97173.77
2018-12-22T23:20:20.258Z,97170.41
2018-12-22T23:22:46.122Z,97178.13
2018-12-22T23:25:17.199Z,97172.63
2018-12-22T23:27:43.076Z,97173.53
2018-12-22T23:30:09.133Z,97170.23
2018-12-22T23:32:35.035Z,97169.38
2018-12-22T23:35:03.179Z,97168.20
2018-12-22T23:37:29.064Z,97168.41
2018-12-22T23:39:55.219Z,97172.15
2018-12-22T23:42:21.146Z,97168.67
2018-12-22T23:44:47.033Z,97167.88
2018-12-22T23:47:15.912Z,97171.17
2018-12-22T23:49:41.797Z,97174.69
2018-12-22T23:52:10.258Z,97172.09
2018-12-22T23:54:36.150Z,97168.20
2018-12-22T23:59:32.851Z,97159.00
